createdAt,value
2018-09-18T00:02:09.264Z,101302.41
2018-09-18T00:04:36.908Z,101295.16
2018-09-18T00:07:03.549Z,101291.92
2018-09-18T00:09:30.192Z,101295.81
2018-09-18T00:11:58.124Z,101296.78
2018-09-18T00:14:26.463Z,101290.98
2018-09-18T00:16:54.453Z,101290.26
2018-09-18T00:19:22.002Z,101288.92
2018-09-18T00:21:49.653Z,101282.92
2018-09-18T00:24:17.381Z,101284.59
2018-09-18T00:26:44.058Z,101280.13
2018-09-18T00:29:11.620Z,101281.55
2018-09-18T00:31:39.254Z,101276.98
2018-09-18T00:34:05.893Z,101280.02
2018-09-18T00:36:32.761Z,101271.16
2018-09-18T00:39:00.385Z,101275.14
2018-09-18T00:41:28.016Z,101274.42
2018-09-18T00:43:54.689Z,101272.88
2018-09-18T00:46:21.368Z,101269.73
2018-09-18T00:48:48.892Z,101267.08
2018-09-18T00:51:16.474Z,101274.42
2018-09-18T00:53:43.105Z,101270.58
2018-09-18T00:56:09.765Z,101265.45
2018-09-18T00:58:36.445Z,101263.19
2018-09-18T01:01:04.099Z,101261.02
2018-09-18T01:03:30.818Z,101261.81
2018-09-18T01:05:59.276Z,101258.72
2018-09-18T01:08:26.761Z,101255.08
2018-09-18T01:10:54.245Z,101254.15
2018-09-18T01:13:21.852Z,101259.81
2018-09-18T01:15:48.532Z,101255.97
2018-09-18T01:18:15.985Z,101254.29
2018-09-18T01:20:43.560Z,101253.56
2018-09-18T01:23:11.180Z,101254.41
2018-09-18T01:25:38.813Z,101260.53
2018-09-18T01:28:06.485Z,101251.84
2018-09-18T01:30:33.252Z,101260.20
2018-09-18T01:32:59.990Z,101251.64
2018-09-18T01:35:26.996Z,101255.73
2018-09-18T01:37:54.481Z,101260.93
2018-09-18T01:40:22.073Z,101257.45
2018-09-18T01:42:48.729Z,101262.77
2018-09-18T01:45:15.392Z,101258.03
2018-09-18T01:47:43.073Z,101249.58
2018-09-18T01:50:09.773Z,101249.72
2018-09-18T01:52:36.416Z,101255.88
2018-09-18T01:55:03.052Z,101252.14
2018-09-18T01:57:29.757Z,101252.62
2018-09-18T01:59:57.409Z,101252.96
2018-09-18T02:02:24.864Z,101245.73
2018-09-18T02:04:53.160Z,101251.94
2018-09-18T02:07:20.728Z,101249.77
2018-09-18T02:09:48.167Z,101252.38
2018-09-18T02:12:15.735Z,101252.62
2018-09-18T02:14:43.466Z,101255.57
2018-09-18T02:17:11.169Z,101248.39
2018-09-18T02:19:38.745Z,101252.52
2018-09-18T02:22:05.422Z,101251.54
2018-09-18T02:24:32.892Z,101250.06
2018-09-18T02:27:00.533Z,101244.80
2018-09-18T02:29:27.212Z,101252.77
2018-09-18T02:31:55.241Z,101247.60
2018-09-18T02:34:24.692Z,101243.97
2018-09-18T02:36:53.190Z,101244.31
2018-09-18T02:39:20.758Z,101247.02
2018-09-18T02:41:47.400Z,101246.52
2018-09-18T02:44:14.981Z,101232.61
2018-09-18T02:46:42.583Z,101238.02
2018-09-18T02:49:09.280Z,101225.98
2018-09-18T02:51:36.897Z,101225.58
2018-09-18T02:54:04.522Z,101227.20
2018-09-18T02:56:32.180Z,101226.07
2018-09-18T02:58:59.933Z,101223.47
2018-09-18T03:01:27.580Z,101222.48
2018-09-18T03:03:55.213Z,101220.95
2018-09-18T03:06:21.836Z,101225.73
2018-09-18T03:08:49.533Z,101221.70
2018-09-18T03:11:16.234Z,101222.04
2018-09-18T03:13:43.725Z,101229.13
2018-09-18T03:16:10.376Z,101223.21
2018-09-18T03:18:37.951Z,101223.47
2018-09-18T03:21:05.697Z,101227.70
2018-09-18T03:23:33.429Z,101224.44
2018-09-18T03:26:00.962Z,101221.70
2018-09-18T03:28:27.877Z,101223.02
2018-09-18T03:30:54.573Z,101230.64
2018-09-18T03:33:21.256Z,101223.72
2018-09-18T03:35:48.042Z,101223.47
2018-09-18T03:38:14.677Z,101216.13
2018-09-18T03:40:42.185Z,101218.50
2018-09-18T03:43:08.870Z,101208.86
2018-09-18T03:45:36.544Z,101212.64
2018-09-18T03:48:03.983Z,101212.64
2018-09-18T03:50:31.653Z,101205.41
2018-09-18T03:52:59.271Z,101200.70
2018-09-18T03:55:27.684Z,101202.27
2018-09-18T03:57:54.557Z,101197.10
2018-09-18T04:00:23.051Z,101200.11
2018-09-18T04:02:49.909Z,101199.61
2018-09-18T04:05:16.533Z,101200.11
2018-09-18T04:07:43.980Z,101204.83
2018-09-18T04:10:10.632Z,101203.59
2018-09-18T04:12:38.301Z,101199.37
2018-09-18T04:15:05.029Z,101198.69
2018-09-18T04:17:32.671Z,101202.31
2018-09-18T04:20:00.152Z,101202.97
2018-09-18T04:22:26.858Z,101208.06
2018-09-18T04:24:54.332Z,101211.56
2018-09-18T04:27:20.973Z,101213.48
2018-09-18T04:29:47.662Z,101212.89
2018-09-18T04:32:14.332Z,101212.50
2018-09-18T04:34:41.037Z,101215.75
2018-09-18T04:37:07.682Z,101213.03
2018-09-18T04:39:34.539Z,101216.03
2018-09-18T04:42:02.032Z,101219.38
2018-09-18T04:44:29.620Z,101215.55
2018-09-18T04:46:57.507Z,101216.53
2018-09-18T04:49:25.100Z,101211.95
2018-09-18T04:51:51.749Z,101206.41
2018-09-18T04:54:18.404Z,101203.85
2018-09-18T04:56:45.093Z,101203.64
2018-09-18T04:59:11.908Z,101211.70
2018-09-18T05:01:38.589Z,101205.08
2018-09-18T05:04:05.242Z,101207.48
2018-09-18T05:06:31.912Z,101207.63
2018-09-18T05:08:58.582Z,101210.14
2018-09-18T05:11:25.267Z,101217.71
2018-09-18T05:13:53.287Z,101215.89
2018-09-18T05:16:21.629Z,101219.78
2018-09-18T05:18:49.268Z,101223.06
2018-09-18T05:21:16.036Z,101223.26
2018-09-18T05:23:42.684Z,101224.20
2018-09-18T05:26:09.339Z,101220.76
2018-09-18T05:28:36.012Z,101229.21
2018-09-18T05:31:02.672Z,101223.41
2018-09-18T05:33:29.331Z,101226.21
2018-09-18T05:35:57.448Z,101225.09
2018-09-18T05:38:25.129Z,101218.59
2018-09-18T05:40:53.470Z,101225.09
2018-09-18T05:43:20.999Z,101228.48
2018-09-18T05:45:47.736Z,101227.40
2018-09-18T05:48:15.348Z,101222.78
2018-09-18T05:50:42.492Z,101221.59
2018-09-18T05:53:09.821Z,101225.09
2018-09-18T05:55:37.441Z,101222.67
2018-09-18T05:58:05.060Z,101216.53
2018-09-18T06:00:32.736Z,101222.04
2018-09-18T06:03:00.435Z,101216.73
2018-09-18T06:05:27.368Z,101219.38
2018-09-18T06:07:54.038Z,101216.63
2018-09-18T06:10:21.556Z,101211.61
2018-09-18T06:12:48.236Z,101212.48
2018-09-18T06:15:14.938Z,101214.81
2018-09-18T06:17:42.625Z,101212.55
2018-09-18T06:20:09.313Z,101212.89
2018-09-18T06:22:36.024Z,101218.34
2018-09-18T06:25:02.735Z,101220.60
2018-09-18T06:27:30.273Z,101219.83
2018-09-18T06:29:57.799Z,101225.62
2018-09-18T06:32:25.489Z,101223.47
2018-09-18T06:34:55.305Z,101227.30
2018-09-18T06:37:24.333Z,101221.99
2018-09-18T06:39:53.414Z,101223.66
2018-09-18T06:42:21.079Z,101223.91
2018-09-18T06:44:48.564Z,101226.07
2018-09-18T06:47:16.546Z,101226.91
2018-09-18T06:49:44.326Z,101223.30
2018-09-18T06:52:12.088Z,101222.33
2018-09-18T06:54:39.592Z,101222.77
2018-09-18T06:57:06.257Z,101222.42
2018-09-18T06:59:32.961Z,101218.09
2018-09-18T07:02:00.508Z,101224.28
2018-09-18T07:04:28.692Z,101224.44
2018-09-18T07:06:57.565Z,101224.84
2018-09-18T07:09:24.241Z,101225.77
2018-09-18T07:11:50.914Z,101220.45
2018-09-18T07:14:17.576Z,101226.61
2018-09-18T07:16:44.240Z,101225.17
2018-09-18T07:19:10.941Z,101221.39
2018-09-18T07:21:37.617Z,101218.12
2018-09-18T07:24:04.257Z,101218.62
2018-09-18T07:26:30.941Z,101214.64
2018-09-18T07:28:57.597Z,101215.69
2018-09-18T07:31:24.256Z,101218.38
2018-09-18T07:33:51.012Z,101208.95
2018-09-18T07:36:18.614Z,101211.72
2018-09-18T07:38:46.165Z,101212.06
2018-09-18T07:41:13.812Z,101208.54
2018-09-18T07:43:40.505Z,101211.20
2018-09-18T07:46:07.321Z,101213.45
2018-09-18T07:48:36.857Z,101212.23
2018-09-18T07:51:05.205Z,101214.78
2018-09-18T07:53:32.652Z,101216.45
2018-09-18T07:56:02.300Z,101216.65
2018-09-18T07:58:28.949Z,101212.17
2018-09-18T08:00:56.628Z,101206.85
2018-09-18T08:03:24.376Z,101205.67
2018-09-18T08:05:52.044Z,101206.24
2018-09-18T08:08:18.972Z,101205.89
2018-09-18T08:10:46.625Z,101204.19
2018-09-18T08:13:13.485Z,101200.84
2018-09-18T08:15:40.968Z,101200.58
2018-09-18T08:18:07.692Z,101200.84
2018-09-18T08:20:35.306Z,101201.12
2018-09-18T08:23:02.036Z,101197.28
2018-09-18T08:25:28.864Z,101196.52
2018-09-18T08:27:57.678Z,101199.66
2018-09-18T08:30:24.371Z,101205.48
2018-09-18T08:32:51.116Z,101201.84
2018-09-18T08:35:18.598Z,101196.67
2018-09-18T08:37:45.256Z,101194.42
2018-09-18T08:40:11.909Z,101201.19
2018-09-18T08:42:39.471Z,101202.40
2018-09-18T08:45:06.187Z,101201.76
2018-09-18T08:47:33.901Z,101198.88
2018-09-18T08:50:01.460Z,101199.28
2018-09-18T08:52:28.409Z,101193.03
2018-09-18T08:54:56.910Z,101193.85
2018-09-18T08:57:25.149Z,101192.52
2018-09-18T08:59:51.817Z,101195.30
2018-09-18T09:02:18.521Z,101196.63
2018-09-18T09:04:45.244Z,101190.13
2018-09-18T09:07:12.099Z,101191.69
2018-09-18T09:09:38.861Z,101190.70
2018-09-18T09:12:06.369Z,101192.52
2018-09-18T09:14:33.189Z,101186.86
2018-09-18T09:17:00.858Z,101187.32
2018-09-18T09:19:28.456Z,101179.72
2018-09-18T09:21:55.263Z,101176.57
2018-09-18T09:24:22.104Z,101178.24
2018-09-18T09:26:49.922Z,101172.09
2018-09-18T09:29:16.571Z,101164.38
2018-09-18T09:31:44.072Z,101164.11
2018-09-18T09:34:11.794Z,101164.61
2018-09-18T09:36:38.466Z,101160.39
2018-09-18T09:39:07.273Z,101164.27
2018-09-18T09:41:34.932Z,101154.24
2018-09-18T09:44:02.835Z,101152.71
2018-09-18T09:46:30.305Z,101152.71
2018-09-18T09:48:57.978Z,101147.74
2018-09-18T09:51:25.513Z,101146.67
2018-09-18T09:53:53.632Z,101147.32
2018-09-18T09:56:21.533Z,101139.54
2018-09-18T09:58:49.157Z,101134.56
2018-09-18T10:01:23.549Z,101137.72
2018-09-18T10:03:50.237Z,101127.16
2018-09-18T10:06:17.761Z,101126.89
2018-09-18T10:08:45.409Z,101123.25
2018-09-18T10:11:13.077Z,101120.17
2018-09-18T10:13:39.732Z,101118.99
2018-09-18T10:16:07.289Z,101115.01
2018-09-18T10:18:33.949Z,101116.95
2018-09-18T10:21:01.381Z,101114.63
2018-09-18T10:23:28.045Z,101106.80
2018-09-18T10:25:56.700Z,101106.39
2018-09-18T10:28:24.172Z,101101.83
2018-09-18T10:30:50.814Z,101098.83
2018-09-18T10:33:17.569Z,101095.34
2018-09-18T10:35:44.273Z,101086.60
2018-09-18T10:38:10.964Z,101093.52
2018-09-18T10:40:37.668Z,101089.38
2018-09-18T10:43:05.353Z,101084.20
2018-09-18T10:45:32.033Z,101080.37
2018-09-18T10:47:58.719Z,101088.34
2018-09-18T10:50:25.357Z,101080.86
2018-09-18T10:52:52.009Z,101084.85
2018-09-18T10:55:18.728Z,101075.81
2018-09-18T10:57:45.400Z,101071.83
2018-09-18T11:00:12.063Z,101076.53
2018-09-18T11:02:38.740Z,101073.16
2018-09-18T11:05:05.414Z,101063.36
2018-09-18T11:07:32.132Z,101061.69
2018-09-18T11:09:58.903Z,101062.38
2018-09-18T11:12:27.477Z,101054.28
2018-09-18T11:14:55.228Z,101064.69
2018-09-18T11:17:21.884Z,101048.25
2018-09-18T11:19:49.464Z,101048.55
2018-09-18T11:22:17.092Z,101047.34
2018-09-18T11:24:44.600Z,101051.55
2018-09-18T11:27:11.300Z,101052.04
2018-09-18T11:29:38.033Z,101048.89
2018-09-18T11:32:04.787Z,101047.22
2018-09-18T11:34:32.358Z,101033.86
2018-09-18T11:37:00.102Z,101035.53
2018-09-18T11:39:27.764Z,101042.17
2018-09-18T11:41:55.411Z,101033.36
2018-09-18T11:44:22.062Z,101036.14
2018-09-18T11:46:49.087Z,101032.23
2018-09-18T11:49:16.481Z,101022.39
2018-09-18T11:51:43.164Z,101020.56
2018-09-18T11:54:10.837Z,101023.56
2018-09-18T11:56:38.648Z,101019.23
2018-09-18T11:59:06.124Z,101011.75
2018-09-18T12:01:33.732Z,101013.55
2018-09-18T12:04:01.572Z,101006.56
2018-09-18T12:06:29.057Z,101002.30
2018-09-18T12:08:56.708Z,101001.23
2018-09-18T12:11:24.051Z,101001.52
2018-09-18T12:13:51.693Z,101001.50
2018-09-18T12:16:18.397Z,101004.28
2018-09-18T12:18:45.100Z,100996.50
2018-09-18T12:21:12.744Z,101001.63
2018-09-18T12:23:40.425Z,100994.48
2018-09-18T12:26:07.085Z,100993.06
2018-09-18T12:28:34.784Z,100988.30
2018-09-18T12:31:02.497Z,100985.58
2018-09-18T12:33:30.177Z,100990.13
2018-09-18T12:35:57.873Z,100988.80
2018-09-18T12:38:25.565Z,100984.25
2018-09-18T12:40:54.346Z,100985.39
2018-09-18T12:43:21.018Z,100988.39
2018-09-18T12:45:49.069Z,100969.49
2018-09-18T12:48:15.739Z,100979.77
2018-09-18T12:50:42.446Z,100971.10
2018-09-18T12:53:10.075Z,100963.25
2018-09-18T12:55:36.755Z,100968.38
2018-09-18T12:58:04.482Z,100964.17
2018-09-18T13:00:31.991Z,100958.64
2018-09-18T13:02:58.946Z,100948.13
2018-09-18T13:05:27.038Z,100950.66
2018-09-18T13:07:55.593Z,100944.11
2018-09-18T13:10:24.329Z,100947.94
2018-09-18T13:12:51.958Z,100945.93
2018-09-18T13:15:18.625Z,100937.41
2018-09-18T13:17:45.361Z,100940.62
2018-09-18T13:20:12.035Z,100931.75
2018-09-18T13:22:38.717Z,100924.84
2018-09-18T13:25:05.834Z,100928.77
2018-09-18T13:27:32.481Z,100923.85
2018-09-18T13:29:59.125Z,100920.17
2018-09-18T13:32:26.855Z,100914.48
2018-09-18T13:34:54.632Z,100913.16
2018-09-18T13:37:21.292Z,100903.84
2018-09-18T13:39:48.061Z,100910.50
2018-09-18T13:42:14.790Z,100903.35
2018-09-18T13:44:42.477Z,100900.69
2018-09-18T13:47:10.131Z,100898.53
2018-09-18T13:49:37.597Z,100898.03
2018-09-18T13:52:04.256Z,100903.17
2018-09-18T13:54:31.866Z,100905.55
2018-09-18T13:56:59.688Z,100906.17
2018-09-18T13:59:27.288Z,100901.63
2018-09-18T14:01:54.781Z,100902.62
2018-09-18T14:04:23.786Z,100898.63
2018-09-18T14:06:51.290Z,100896.96
2018-09-18T14:09:17.942Z,100896.25
2018-09-18T14:11:45.618Z,100898.47
2018-09-18T14:14:13.428Z,100901.29
2018-09-18T14:16:40.883Z,100895.63
2018-09-18T14:19:12.113Z,100900.95
2018-09-18T14:21:39.732Z,100890.81
2018-09-18T14:24:07.277Z,100890.47
2018-09-18T14:26:34.213Z,100886.48
2018-09-18T14:29:01.545Z,100885.16
2018-09-18T14:31:29.049Z,100885.16
2018-09-18T14:33:57.941Z,100884.50
2018-09-18T14:36:25.562Z,100875.84
2018-09-18T14:38:54.287Z,100877.30
2018-09-18T14:41:21.819Z,100875.84
2018-09-18T14:43:49.489Z,100871.88
2018-09-18T14:46:17.124Z,100872.04
2018-09-18T14:48:44.636Z,100869.20
2018-09-18T14:51:12.233Z,100867.87
2018-09-18T14:53:38.878Z,100869.33
2018-09-18T14:56:06.424Z,100865.49
2018-09-18T14:58:33.934Z,100867.99
2018-09-18T15:01:00.572Z,100866.82
2018-09-18T15:03:28.101Z,100865.00
2018-09-18T15:05:55.557Z,100859.34
2018-09-18T15:08:23.188Z,100862.99
2018-09-18T15:10:50.803Z,100861.66
2018-09-18T15:13:17.467Z,100860.80
2018-09-18T15:15:45.119Z,100853.69
2018-09-18T15:18:12.655Z,100851.98
2018-09-18T15:20:40.257Z,100856.12
2018-09-18T15:23:06.917Z,100854.52
2018-09-18T15:25:34.554Z,100857.17
2018-09-18T15:28:01.236Z,100847.88
2018-09-18T15:30:27.880Z,100851.36
2018-09-18T15:32:54.540Z,100850.03
2018-09-18T15:35:21.201Z,100851.70
2018-09-18T15:37:47.849Z,100847.22
2018-09-18T15:40:14.482Z,100856.52
2018-09-18T15:42:41.125Z,100856.19
2018-09-18T15:45:07.777Z,100858.84
2018-09-18T15:47:35.274Z,100856.47
2018-09-18T15:50:01.954Z,100848.98
2018-09-18T15:52:28.625Z,100849.20
2018-09-18T15:54:55.303Z,100850.77
2018-09-18T15:57:23.044Z,100845.05
2018-09-18T15:59:49.714Z,100851.20
2018-09-18T16:02:16.416Z,100846.17
2018-09-18T16:04:43.109Z,100849.33
2018-09-18T16:07:09.757Z,100852.97
2018-09-18T16:09:36.463Z,100851.31
2018-09-18T16:12:03.128Z,100853.69
2018-09-18T16:14:30.775Z,100852.48
2018-09-18T16:16:58.397Z,100851.80
2018-09-18T16:19:25.076Z,100847.94
2018-09-18T16:21:53.604Z,100848.93
2018-09-18T16:24:20.320Z,100850.97
2018-09-18T16:26:47.801Z,100841.66
2018-09-18T16:29:15.339Z,100848.44
2018-09-18T16:31:42.943Z,100844.45
2018-09-18T16:34:09.637Z,100843.61
2018-09-18T16:36:37.276Z,100846.27
2018-09-18T16:39:04.856Z,100847.10
2018-09-18T16:41:31.517Z,100847.37
2018-09-18T16:43:59.123Z,100843.52
2018-09-18T16:46:27.454Z,100848.83
2018-09-18T16:48:54.157Z,100849.48
2018-09-18T16:51:21.713Z,100846.98
2018-09-18T16:53:49.174Z,100849.64
2018-09-18T16:56:16.670Z,100848.09
2018-09-18T16:58:44.164Z,100852.70
2018-09-18T17:01:10.876Z,100847.04
2018-09-18T17:03:37.545Z,100852.36
2018-09-18T17:06:04.309Z,100851.80
2018-09-18T17:08:30.964Z,100847.10
2018-09-18T17:10:57.731Z,100843.27
2018-09-18T17:13:24.476Z,100850.66
2018-09-18T17:15:53.105Z,100848.36
2018-09-18T17:18:20.714Z,100855.63
2018-09-18T17:20:48.357Z,100852.92
2018-09-18T17:23:15.000Z,100857.89
2018-09-18T17:25:42.573Z,100861.55
2018-09-18T17:28:10.194Z,100859.38
2018-09-18T17:30:37.920Z,100860.50
2018-09-18T17:33:04.660Z,100863.31
2018-09-18T17:35:31.388Z,100858.33
2018-09-18T17:37:58.946Z,100857.84
2018-09-18T17:40:27.629Z,100869.30
2018-09-18T17:42:54.447Z,100861.98
2018-09-18T17:45:22.031Z,100864.64
2018-09-18T17:47:49.698Z,100861.98
2018-09-18T17:50:17.373Z,100866.64
2018-09-18T17:52:43.987Z,100864.48
2018-09-18T17:55:11.745Z,100865.31
2018-09-18T17:57:38.401Z,100867.91
2018-09-18T18:00:05.182Z,100873.45
2018-09-18T18:02:32.816Z,100871.41
2018-09-18T18:05:00.446Z,100869.61
2018-09-18T18:07:27.952Z,100875.39
2018-09-18T18:09:54.631Z,100872.73
2018-09-18T18:12:21.294Z,100879.75
2018-09-18T18:14:47.949Z,100876.60
2018-09-18T18:17:14.884Z,100877.22
2018-09-18T18:19:41.644Z,100876.94
2018-09-18T18:22:14.349Z,100876.11
2018-09-18T18:24:41.107Z,100872.06
2018-09-18T18:27:08.130Z,100874.22
2018-09-18T18:29:34.915Z,100869.61
2018-09-18T18:32:02.389Z,100871.06
2018-09-18T18:34:30.521Z,100871.06
2018-09-18T18:36:58.150Z,100869.40
2018-09-18T18:39:24.812Z,100872.89
2018-09-18T18:41:51.476Z,100874.06
2018-09-18T18:44:18.168Z,100880.38
2018-09-18T18:46:44.844Z,100878.20
2018-09-18T18:49:11.503Z,100881.20
2018-09-18T18:51:39.257Z,100878.20
2018-09-18T18:54:06.069Z,100883.86
2018-09-18T18:56:32.736Z,100882.41
2018-09-18T18:58:59.547Z,100886.03
2018-09-18T19:01:28.313Z,100879.53
2018-09-18T19:03:54.956Z,100883.30
2018-09-18T19:06:32.068Z,100889.33
2018-09-18T19:08:58.927Z,100894.52
2018-09-18T19:11:25.704Z,100893.91
2018-09-18T19:13:53.352Z,100892.77
2018-09-18T19:16:20.954Z,100899.91
2018-09-18T19:18:47.720Z,100892.98
2018-09-18T19:21:14.345Z,100895.27
2018-09-18T19:23:41.049Z,100893.10
2018-09-18T19:26:08.818Z,100893.48
2018-09-18T19:28:39.078Z,100897.09
2018-09-18T19:31:05.737Z,100890.26
2018-09-18T19:33:33.573Z,100897.25
2018-09-18T19:36:01.721Z,100889.77
2018-09-18T19:38:29.314Z,100898.08
2018-09-18T19:40:57.020Z,100901.73
2018-09-18T19:43:23.735Z,100902.06
2018-09-18T19:45:51.367Z,100909.88
2018-09-18T19:48:18.373Z,100907.87
2018-09-18T19:50:45.992Z,100910.69
2018-09-18T19:53:12.661Z,100908.86
2018-09-18T19:55:40.232Z,100912.14
2018-09-18T19:58:07.455Z,100904.66
2018-09-18T20:00:34.141Z,100905.38
2018-09-18T20:03:00.785Z,100912.85
2018-09-18T20:05:27.476Z,100916.62
2018-09-18T20:07:54.997Z,100912.63
2018-09-18T20:10:21.801Z,100911.30
2018-09-18T20:12:48.506Z,100919.16
2018-09-18T20:15:16.134Z,100916.84
2018-09-18T20:17:43.737Z,100917.45
2018-09-18T20:20:11.179Z,100919.28
2018-09-18T20:22:38.664Z,100917.39
2018-09-18T20:25:05.394Z,100913.56
2018-09-18T20:27:32.064Z,100908.46
2018-09-18T20:29:58.722Z,100912.23
2018-09-18T20:32:27.460Z,100916.55
2018-09-18T20:34:54.109Z,100914.20
2018-09-18T20:37:21.641Z,100915.72
2018-09-18T20:39:49.250Z,100910.22
2018-09-18T20:42:15.868Z,100917.81
2018-09-18T20:44:43.464Z,100916.86
2018-09-18T20:47:10.955Z,100917.97
2018-09-18T20:49:38.313Z,100920.91
2018-09-18T20:52:05.968Z,100919.95
2018-09-18T20:54:32.600Z,100913.58
2018-09-18T20:56:59.232Z,100916.23
2018-09-18T20:59:26.871Z,100923.71
2018-09-18T21:01:53.510Z,100926.70
2018-09-18T21:04:21.288Z,100924.55
2018-09-18T21:06:48.057Z,100925.88
2018-09-18T21:09:14.716Z,100930.58
2018-09-18T21:11:41.352Z,100930.70
2018-09-18T21:14:09.442Z,100929.02
2018-09-18T21:16:38.424Z,100929.36
2018-09-18T21:19:05.121Z,100932.86
2018-09-18T21:21:31.773Z,100928.95
2018-09-18T21:23:58.480Z,100923.95
2018-09-18T21:26:25.248Z,100927.28
2018-09-18T21:28:51.941Z,100928.95
2018-09-18T21:31:18.589Z,100924.78
2018-09-18T21:33:45.223Z,100929.11
2018-09-18T21:36:12.700Z,100922.19
2018-09-18T21:38:39.349Z,100919.16
2018-09-18T21:41:06.035Z,100922.38
2018-09-18T21:43:32.897Z,100922.11
2018-09-18T21:46:00.872Z,100923.44
2018-09-18T21:48:27.525Z,100935.05
2018-09-18T21:50:55.039Z,100919.30
2018-09-18T21:53:21.692Z,100924.55
2018-09-18T21:55:48.343Z,100920.78
2018-09-18T21:58:15.001Z,100925.59
2018-09-18T22:00:43.819Z,100924.13
2018-09-18T22:03:10.522Z,100932.24
2018-09-18T22:05:38.230Z,100931.10
2018-09-18T22:08:04.951Z,100934.13
2018-09-18T22:10:32.617Z,100940.13
2018-09-18T22:13:00.216Z,100933.98
2018-09-18T22:15:27.509Z,100937.30
2018-09-18T22:17:54.270Z,100937.32
2018-09-18T22:20:20.938Z,100943.42
2018-09-18T22:22:47.984Z,100938.94
2018-09-18T22:25:14.693Z,100939.28
2018-09-18T22:30:38.586Z,100936.43
2018-09-18T22:33:06.894Z,100932.56
2018-09-18T22:35:36.315Z,100931.23
2018-09-18T22:38:03.922Z,100928.67
2018-09-18T22:40:31.578Z,100934.81
2018-09-18T22:42:58.350Z,100929.34
2018-09-18T22:45:25.909Z,100928.39
2018-09-18T22:47:52.724Z,100932.37
2018-09-18T22:50:20.457Z,100929.23
2018-09-18T22:52:49.958Z,100929.84
2018-09-18T22:55:17.807Z,100929.50
2018-09-18T22:57:45.025Z,100928.52
2018-09-18T23:00:12.133Z,100929.00
2018-09-18T23:02:39.680Z,100929.00
2018-09-18T23:05:07.944Z,100930.55
2018-09-18T23:07:37.105Z,100927.06
2018-09-18T23:10:04.965Z,100932.50
2018-09-18T23:12:32.634Z,100927.19
2018-09-18T23:14:59.733Z,100929.84
2018-09-18T23:17:27.395Z,100925.86
2018-09-18T23:19:55.672Z,100929.16
2018-09-18T23:22:22.716Z,100929.50
2018-09-18T23:24:50.894Z,100926.16
2018-09-18T23:27:19.951Z,100931.33
2018-09-18T23:29:47.942Z,100935.09
2018-09-18T23:32:15.061Z,100939.56
2018-09-18T23:34:42.048Z,100933.30
2018-09-18T23:37:09.209Z,100932.16
2018-09-18T23:39:38.255Z,100941.45
2018-09-18T23:42:06.891Z,100934.75
2018-09-18T23:44:34.842Z,100936.57
2018-09-18T23:47:02.780Z,100940.90
2018-09-18T23:49:30.919Z,100934.25
2018-09-18T23:51:58.916Z,100941.20
2018-09-18T23:54:25.961Z,100932.39
2018-09-18T23:56:53.923Z,100935.05
2018-09-18T23:59:21.071Z,100936.57
